Time;durP1;ratioP1;P1;durP2;ratioP2;P2;SDS_P1;SDS_P2;PMS_P1;PMS_P2;Temp;Humidity;BMP_temperature;BMP_pressure;BME280_temperature;BME280_humidity;BME280_pressure;Samples;Min_cycle;Max_cycle;Signal;HPM_P1;HPM_P2
2021/08/07 00:01:05;;;;;;;0.10;0.10;;;16.60;99.90;;;;;;4959167;28;20390;-89
2021/08/07 00:03:31;;;;;;;0.00;0.00;;;16.70;99.90;;;;;;4959824;28;20058;-88
2021/08/07 00:05:56;;;;;;;0.00;0.00;;;16.60;99.90;;;;;;4955266;28;20502;-88
2021/08/07 00:08:22;;;;;;;0.17;0.17;;;16.50;99.90;;;;;;4956654;28;20038;-88
2021/08/07 00:10:48;;;;;;;0.10;0.10;;;16.50;99.90;;;;;;4957941;28;20018;-90
2021/08/07 00:13:14;;;;;;;0.10;0.10;;;16.60;99.90;;;;;;4956657;28;20035;-90
2021/08/07 00:15:39;;;;;;;0.10;0.10;;;16.70;99.90;;;;;;4961935;28;20027;-89
2021/08/07 00:18:05;;;;;;;0.00;0.00;;;16.70;99.90;;;;;;4959309;28;20286;-90
2021/08/07 00:20:31;;;;;;;0.37;0.37;;;16.80;99.90;;;;;;4962592;28;20034;-90
2021/08/07 00:22:57;;;;;;;0.00;0.00;;;16.80;99.90;;;;;;4958556;28;20080;-89
2021/08/07 00:25:22;;;;;;;0.03;0.03;;;16.90;99.90;;;;;;4959380;28;20114;-87
2021/08/07 00:27:48;;;;;;;0.00;0.00;;;16.90;99.90;;;;;;4956466;28;20030;-88
2021/08/07 00:30:14;;;;;;;0.00;0.00;;;16.90;99.90;;;;;;4963791;28;20089;-90
2021/08/07 00:32:40;;;;;;;0.00;0.00;;;16.90;99.90;;;;;;4959186;28;20054;-90
2021/08/07 00:35:06;;;;;;;0.80;0.80;;;17.00;99.90;;;;;;4961837;28;20501;-90
2021/08/07 00:37:32;;;;;;;0.00;0.00;;;16.70;99.90;;;;;;4959044;28;20047;-89
2021/08/07 00:39:58;;;;;;;0.10;0.10;;;16.70;99.90;;;;;;4955632;28;20043;-89
2021/08/07 00:42:24;;;;;;;0.10;0.10;;;16.90;99.90;;;;;;4958956;28;20089;-90
2021/08/07 00:44:49;;;;;;;0.10;0.10;;;16.80;99.90;;;;;;4960735;28;20521;-90
2021/08/07 00:47:15;;;;;;;0.07;0.07;;;16.60;99.90;;;;;;4961559;28;20042;-89
2021/08/07 00:49:43;;;;;;;0.00;0.00;;;16.40;99.90;;;;;;4959181;28;20089;-89
2021/08/07 00:52:09;;;;;;;0.10;0.10;;;16.30;99.90;;;;;;4958658;28;20037;-88
2021/08/07 00:54:35;;;;;;;0.15;0.15;;;16.30;99.90;;;;;;4960028;28;20035;-89
2021/08/07 00:57:01;;;;;;;0.10;0.10;;;16.50;99.90;;;;;;4962352;28;20035;-89
2021/08/07 00:59:27;;;;;;;0.00;0.00;;;16.50;99.90;;;;;;4964241;28;20122;-90
2021/08/07 01:02:00;;;;;;;0.00;0.00;;;16.50;99.90;;;;;;4961240;28;20116;-89
2021/08/07 01:04:29;;;;;;;0.20;0.20;;;16.60;99.90;;;;;;4957663;28;20030;-88
2021/08/07 01:06:57;;;;;;;0.03;0.03;;;16.50;99.90;;;;;;4959039;28;20023;-90
2021/08/07 01:09:42;;;;;;;1.65;0.95;;;16.40;99.90;;;;;;4968925;28;20078;-89
2021/08/07 01:12:26;;;;;;;0.00;0.00;;;16.50;99.90;;;;;;4961154;28;20057;-91
2021/08/07 01:14:54;;;;;;;0.10;0.10;;;16.50;99.90;;;;;;4963646;28;20035;-89
2021/08/07 01:17:27;;;;;;;0.00;0.00;;;16.70;99.90;;;;;;4963544;28;20111;-89
2021/08/07 01:19:55;;;;;;;0.25;0.22;;;16.60;99.90;;;;;;4963420;28;20105;-90
2021/08/07 01:22:32;;;;;;;0.10;0.10;;;16.60;99.90;;;;;;4960865;28;20138;-90
2021/08/07 01:25:01;;;;;;;;;;;16.50;99.90;;;;;;4960955;28;20074;-90
2021/08/07 01:27:30;;;;;;;0.52;0.50;;;16.50;99.90;;;;;;4964517;28;19944;-88
2021/08/07 01:29:57;;;;;;;0.05;0.05;;;16.30;99.90;;;;;;4964938;28;20031;-89
2021/08/07 01:32:25;;;;;;;0.20;0.20;;;16.20;99.90;;;;;;4961956;28;20022;-88
2021/08/07 01:34:52;;;;;;;0.00;0.00;;;16.20;99.90;;;;;;4957825;28;20035;-88
2021/08/07 01:37:19;;;;;;;0.30;0.30;;;16.20;99.90;;;;;;4962261;28;20035;-88
2021/08/07 01:39:47;;;;;;;0.10;0.05;;;16.20;99.90;;;;;;4961217;28;20030;-87
2021/08/07 01:42:13;;;;;;;0.00;0.00;;;16.10;99.90;;;;;;4957362;28;20400;-87
2021/08/07 01:44:38;;;;;;;0.07;0.07;;;16.10;99.90;;;;;;4956969;28;20038;-87
2021/08/07 01:47:15;;;;;;;0.33;0.33;;;16.10;99.90;;;;;;4960432;28;20100;-89
2021/08/07 01:50:08;;;;;;;0.00;0.00;;;16.10;99.90;;;;;;4958837;28;20493;-87
2021/08/07 01:52:41;;;;;;;0.00;0.00;;;16.20;99.90;;;;;;4955384;28;20034;-88
2021/08/07 01:55:12;;;;;;;0.10;0.10;;;16.30;99.90;;;;;;4955159;28;20054;-90
2021/08/07 01:57:42;;;;;;;0.20;0.20;;;16.40;99.90;;;;;;4959074;28;20023;-89
2021/08/07 02:00:12;;;;;;;0.15;0.15;;;16.20;99.90;;;;;;4960132;28;20045;-90
2021/08/07 02:02:40;;;;;;;0.52;0.52;;;16.20;99.90;;;;;;4963091;28;20061;-88
2021/08/07 02:05:06;;;;;;;0.30;0.30;;;16.10;99.90;;;;;;4959655;28;20081;-87
2021/08/07 02:07:32;;;;;;;0.43;0.43;;;16.00;99.90;;;;;;4958440;28;20101;-88
2021/08/07 02:09:58;;;;;;;0.17;0.17;;;15.90;99.90;;;;;;4958630;28;20041;-89
2021/08/07 02:12:23;;;;;;;10.88;0.80;;;16.10;99.90;;;;;;4962571;28;20117;-88
2021/08/07 02:14:51;;;;;;;0.30;0.30;;;16.00;99.90;;;;;;4957969;28;20045;-90
2021/08/07 02:17:18;;;;;;;0.00;0.00;;;16.20;99.90;;;;;;4956538;28;20030;-89
2021/08/07 02:19:43;;;;;;;0.10;0.10;;;16.20;99.90;;;;;;4962627;28;20063;-90
2021/08/07 02:22:11;;;;;;;0.10;0.10;;;16.20;99.90;;;;;;4959913;28;20143;-88
2021/08/07 02:24:36;;;;;;;1.00;0.90;;;16.20;99.90;;;;;;4960333;28;20146;-89
2021/08/07 02:27:03;;;;;;;0.10;0.10;;;16.20;99.90;;;;;;4955591;28;20560;-89
2021/08/07 02:29:32;;;;;;;4.30;1.30;;;16.00;99.90;;;;;;4962774;28;20550;-89
2021/08/07 02:31:59;;;;;;;1.80;0.32;;;15.90;1.00;;;;;;4958197;28;20115;-88
2021/08/07 02:34:27;;;;;;;0.00;0.00;;;15.80;99.90;;;;;;4958193;28;20035;-88
2021/08/07 02:36:55;;;;;;;0.25;0.25;;;15.90;99.90;;;;;;4956054;28;20031;-89
2021/08/07 02:39:22;;;;;;;0.10;0.10;;;16.30;99.90;;;;;;4952797;28;20059;-89
2021/08/07 02:41:49;;;;;;;0.25;0.25;;;16.30;99.90;;;;;;4959787;28;20401;-90
2021/08/07 02:44:15;;;;;;;0.13;0.13;;;16.40;99.90;;;;;;4955878;28;20046;-91
2021/08/07 02:46:41;;;;;;;;;;;16.50;99.90;;;;;;4958799;28;20043;-88
2021/08/07 02:49:07;;;;;;;0.10;0.10;;;16.60;99.90;;;;;;4958224;28;19926;-90
2021/08/07 02:51:34;;;;;;;0.10;0.10;;;16.60;99.90;;;;;;4962971;28;20278;-89
2021/08/07 02:54:01;;;;;;;0.20;0.20;;;16.60;99.90;;;;;;4957590;28;20839;-89
2021/08/07 02:56:27;;;;;;;1.27;0.55;;;17.50;99.90;;;;;;4960388;28;20556;-89
2021/08/07 02:58:52;;;;;;;0.00;0.00;;;18.30;99.90;;;;;;4960006;28;20026;-89
2021/08/07 03:01:18;;;;;;;1.10;0.57;;;18.20;99.90;;;;;;4959103;28;20039;-89
2021/08/07 03:03:44;;;;;;;0.10;0.10;;;18.20;99.90;;;;;;4956787;28;20046;-89
2021/08/07 03:06:09;;;;;;;0.60;0.60;;;18.30;99.90;;;;;;4959931;28;20031;-87
2021/08/07 03:08:35;;;;;;;0.20;0.20;;;18.40;99.90;;;;;;4959652;28;20099;-89
2021/08/07 03:11:01;;;;;;;0.07;0.07;;;18.40;99.90;;;;;;4961614;28;20408;-89
2021/08/07 03:13:26;;;;;;;0.20;0.20;;;18.40;99.90;;;;;;4954876;28;20512;-88
2021/08/07 03:15:52;;;;;;;0.20;0.20;;;18.50;99.90;;;;;;4957095;28;20169;-89
2021/08/07 03:18:17;;;;;;;0.20;0.20;;;18.60;99.90;;;;;;4962000;28;20034;-90
2021/08/07 03:20:43;;;;;;;0.10;0.10;;;18.50;99.90;;;;;;4954730;28;20042;-87
2021/08/07 03:23:09;;;;;;;0.10;0.10;;;18.60;99.90;;;;;;4959327;28;20830;-88
2021/08/07 03:25:35;;;;;;;0.10;0.10;;;18.70;99.90;;;;;;4954669;28;20038;-87
2021/08/07 03:28:02;;;;;;;0.10;0.10;;;18.70;99.90;;;;;;4958351;28;20035;-88
2021/08/07 03:30:28;;;;;;;0.10;0.10;;;18.70;99.90;;;;;;4959109;28;20920;-89
2021/08/07 03:32:54;;;;;;;0.03;0.03;;;18.80;99.90;;;;;;4957379;28;20046;-88
2021/08/07 03:35:21;;;;;;;0.00;0.00;;;18.80;99.90;;;;;;4960991;28;20218;-88
2021/08/07 03:37:47;;;;;;;1.75;0.88;;;18.80;99.90;;;;;;4955824;28;20058;-89
2021/08/07 03:40:13;;;;;;;0.40;0.40;;;18.80;99.90;;;;;;4956404;28;20066;-89
2021/08/07 03:42:40;;;;;;;0.28;0.28;;;18.80;99.90;;;;;;4958556;28;20034;-89
2021/08/07 03:45:07;;;;;;;;;;;19.00;99.90;;;;;;4962306;28;20134;-89
2021/08/07 03:47:50;;;;;;;0.20;0.20;;;19.10;99.90;;;;;;4962156;28;19926;-89
2021/08/07 03:50:16;;;;;;;0.35;0.28;;;19.20;99.90;;;;;;4962616;28;20039;-89
2021/08/07 03:52:42;;;;;;;0.10;0.10;;;19.20;99.90;;;;;;4960284;28;20027;-89
2021/08/07 03:55:08;;;;;;;1.40;1.30;;;19.20;99.90;;;;;;4953157;28;20086;-90
2021/08/07 03:57:50;;;;;;;0.00;0.00;;;19.30;99.90;;;;;;4958983;28;20382;-89
2021/08/07 04:00:16;;;;;;;0.10;0.10;;;19.20;99.90;;;;;;4959300;28;20050;-90
2021/08/07 04:02:42;;;;;;;0.10;0.10;;;19.30;99.90;;;;;;4963917;28;20114;-90
2021/08/07 04:05:08;;;;;;;0.37;0.37;;;19.40;99.90;;;;;;4966923;28;20581;-88
2021/08/07 04:07:34;;;;;;;0.10;0.10;;;19.30;99.90;;;;;;4960977;28;20027;-88
2021/08/07 04:09:59;;;;;;;0.03;0.03;;;19.40;99.90;;;;;;4960810;28;20038;-89
2021/08/07 04:12:25;;;;;;;0.00;0.00;;;19.40;99.90;;;;;;4961763;28;20086;-87
2021/08/07 04:14:51;;;;;;;0.53;0.53;;;19.40;99.90;;;;;;4960840;28;20035;-90
2021/08/07 04:17:17;;;;;;;0.10;0.10;;;19.40;99.90;;;;;;4966369;28;20035;-90
2021/08/07 04:19:43;;;;;;;0.47;0.43;;;19.30;99.90;;;;;;4964889;28;20034;-90
2021/08/07 04:22:08;;;;;;;0.47;0.43;;;19.40;99.90;;;;;;4960341;28;20035;-90
2021/08/07 04:24:34;;;;;;;0.10;0.10;;;19.50;99.90;;;;;;4962811;28;20078;-89
2021/08/07 04:27:00;;;;;;;0.10;0.10;;;19.40;99.90;;;;;;4965943;28;20070;-89
2021/08/07 04:29:26;;;;;;;0.43;0.43;;;19.40;99.90;;;;;;4960023;28;20035;-89
2021/08/07 04:31:51;;;;;;;0.07;0.07;;;19.50;99.90;;;;;;4962269;28;20101;-87
2021/08/07 04:34:17;;;;;;;0.20;0.20;;;19.40;99.90;;;;;;4956651;28;20077;-87
2021/08/07 04:36:42;;;;;;;0.30;0.30;;;19.40;99.90;;;;;;4962279;28;20034;-88
2021/08/07 04:39:08;;;;;;;0.30;0.30;;;19.50;99.90;;;;;;4961996;28;20035;-89
2021/08/07 04:41:35;;;;;;;0.07;0.07;;;19.50;99.90;;;;;;4960011;28;20512;-89
2021/08/07 04:44:01;;;;;;;0.45;0.45;;;19.50;99.90;;;;;;4961556;28;20421;-87
2021/08/07 04:46:28;;;;;;;0.40;0.40;;;19.60;99.90;;;;;;4959695;28;20039;-89
2021/08/07 04:48:54;;;;;;;0.10;0.10;;;19.50;99.90;;;;;;4960244;28;20117;-88
2021/08/07 04:51:20;;;;;;;0.00;0.00;;;19.40;99.90;;;;;;4960663;28;20171;-89
2021/08/07 04:53:45;;;;;;;0.00;0.00;;;19.40;99.90;;;;;;4959453;28;20031;-88
2021/08/07 04:56:11;;;;;;;0.10;0.10;;;19.40;99.90;;;;;;4959739;28;20035;-88
2021/08/07 04:58:37;;;;;;;0.00;0.00;;;19.40;99.90;;;;;;4960591;28;20038;-88
2021/08/07 05:01:02;;;;;;;0.10;0.10;;;19.40;99.90;;;;;;4962657;28;20038;-89
2021/08/07 05:03:28;;;;;;;0.20;0.20;;;19.50;99.90;;;;;;4964808;28;20027;-89
2021/08/07 05:05:54;;;;;;;0.10;0.10;;;19.30;99.90;;;;;;4959514;28;20055;-90
2021/08/07 05:08:19;;;;;;;0.07;0.07;;;19.50;99.90;;;;;;4961449;28;20019;-89
2021/08/07 05:10:45;;;;;;;0.00;0.00;;;19.50;99.90;;;;;;4962026;28;20053;-89
2021/08/07 05:13:11;;;;;;;0.00;0.00;;;19.50;99.90;;;;;;4960174;28;20414;-89
2021/08/07 05:15:36;;;;;;;0.20;0.20;;;19.40;99.90;;;;;;4964439;28;20058;-88
2021/08/07 05:18:06;;;;;;;0.00;0.00;;;19.40;99.90;;;;;;4959963;28;20521;-90
2021/08/07 05:20:32;;;;;;;0.08;0.08;;;19.40;99.90;;;;;;4961047;28;20887;-89
2021/08/07 05:22:57;;;;;;;0.10;0.10;;;19.50;99.90;;;;;;4962276;28;20117;-88
2021/08/07 05:25:23;;;;;;;0.00;0.00;;;19.50;99.90;;;;;;4960722;28;20079;-90
2021/08/07 05:27:49;;;;;;;0.00;0.00;;;19.50;99.90;;;;;;4959772;28;20030;-89
2021/08/07 05:30:14;;;;;;;0.00;0.00;;;19.60;99.90;;;;;;4961969;28;20042;-88
2021/08/07 05:32:40;;;;;;;0.00;0.00;;;19.70;99.90;;;;;;4961618;28;20823;-90
2021/08/07 05:35:07;;;;;;;0.10;0.10;;;19.70;99.90;;;;;;4964811;28;20038;-90
2021/08/07 05:37:38;;;;;;;0.00;0.00;;;19.60;99.90;;;;;;4960542;28;20378;-88
2021/08/07 05:40:04;;;;;;;0.00;0.00;;;19.60;99.90;;;;;;4958053;28;20097;-90
2021/08/07 05:42:30;;;;;;;0.00;0.00;;;19.50;99.90;;;;;;4964436;28;20038;-88
2021/08/07 05:44:55;;;;;;;0.00;0.00;;;19.40;99.90;;;;;;4961159;28;20051;-89
2021/08/07 05:47:21;;;;;;;0.10;0.10;;;19.30;99.90;;;;;;4959377;28;20054;-89
2021/08/07 05:49:47;;;;;;;0.10;0.10;;;19.30;99.90;;;;;;4960683;28;20688;-90
2021/08/07 05:52:12;;;;;;;0.00;0.00;;;19.30;99.90;;;;;;4958128;28;20525;-89
2021/08/07 05:54:38;;;;;;;0.10;0.10;;;19.40;99.90;;;;;;4962032;28;20525;-90
2021/08/07 05:57:04;;;;;;;0.03;0.03;;;19.60;99.90;;;;;;4961517;28;20102;-91
2021/08/07 05:59:29;;;;;;;0.00;0.00;;;19.70;99.90;;;;;;4964022;28;20023;-89
2021/08/07 06:01:55;;;;;;;0.00;0.00;;;19.40;99.90;;;;;;4963600;28;20035;-90
2021/08/07 06:04:20;;;;;;;0.30;0.30;;;19.50;99.90;;;;;;4958114;28;20043;-88
2021/08/07 06:06:46;;;;;;;0.00;0.00;;;19.60;99.90;;;;;;4955174;28;20023;-87
2021/08/07 06:09:12;;;;;;;0.00;0.00;;;19.50;99.90;;;;;;4962079;28;20510;-88
2021/08/07 06:11:37;;;;;;;0.00;0.00;;;19.60;99.90;;;;;;4958677;28;20402;-89
2021/08/07 06:14:03;;;;;;;0.00;0.00;;;19.60;99.90;;;;;;4962340;28;20413;-88
2021/08/07 06:16:29;;;;;;;0.00;0.00;;;19.70;99.90;;;;;;4959846;28;20030;-88
2021/08/07 06:18:54;;;;;;;0.10;0.10;;;19.60;99.90;;;;;;4959278;28;20063;-89
2021/08/07 06:21:20;;;;;;;0.23;0.23;;;19.70;99.90;;;;;;4958248;28;20286;-88
2021/08/07 06:23:46;;;;;;;0.07;0.07;;;19.70;99.90;;;;;;4955862;28;20039;-88
2021/08/07 06:26:13;;;;;;;0.10;0.10;;;19.80;99.90;;;;;;4961801;28;20098;-90
2021/08/07 06:28:39;;;;;;;0.00;0.00;;;19.70;99.90;;;;;;4960786;28;20065;-89
2021/08/07 06:31:06;;;;;;;0.00;0.00;;;19.60;99.90;;;;;;4960858;28;20054;-89
2021/08/07 06:33:32;;;;;;;0.38;0.38;;;19.60;99.90;;;;;;4961283;28;20027;-88
2021/08/07 06:36:00;;;;;;;0.00;0.00;;;19.50;99.90;;;;;;4962819;28;20034;-87
2021/08/07 06:38:26;;;;;;;0.08;0.08;;;19.70;99.90;;;;;;4959104;28;20110;-89
2021/08/07 06:40:52;;;;;;;0.07;0.07;;;19.60;99.90;;;;;;4960489;28;20026;-90
2021/08/07 06:43:19;;;;;;;0.10;0.10;;;19.70;99.90;;;;;;4957643;28;20035;-90
2021/08/07 06:45:45;;;;;;;0.63;0.20;;;19.80;99.90;;;;;;4961296;28;20854;-90
2021/08/07 06:48:11;;;;;;;0.10;0.10;;;19.70;99.90;;;;;;4961693;28;20035;-87
2021/08/07 06:50:37;;;;;;;0.10;0.10;;;19.60;99.90;;;;;;4958680;28;20142;-89
2021/08/07 06:53:02;;;;;;;0.10;0.10;;;19.60;99.90;;;;;;4958384;28;20031;-89
2021/08/07 06:55:28;;;;;;;0.00;0.00;;;19.50;99.90;;;;;;4960174;28;20027;-88
2021/08/07 06:57:54;;;;;;;0.00;0.00;;;19.60;99.90;;;;;;4960751;28;20034;-89
2021/08/07 07:00:19;;;;;;;0.10;0.10;;;19.60;99.90;;;;;;4959496;28;20500;-88
2021/08/07 07:02:45;;;;;;;0.20;0.20;;;19.50;99.90;;;;;;4957701;28;20568;-89
2021/08/07 07:05:11;;;;;;;0.03;0.03;;;19.60;99.90;;;;;;4959922;28;20038;-89
2021/08/07 07:07:38;;;;;;;0.20;0.20;;;19.60;99.90;;;;;;4956098;28;20026;-88
2021/08/07 07:10:09;;;;;;;0.10;0.10;;;19.50;99.90;;;;;;4956720;28;20030;-89
2021/08/07 07:12:36;;;;;;;0.10;0.10;;;19.60;99.90;;;;;;4956447;28;20318;-89
2021/08/07 07:15:02;;;;;;;0.08;0.08;;;19.70;99.90;;;;;;4955856;28;20346;-89
2021/08/07 07:17:29;;;;;;;0.10;0.10;;;19.60;99.90;;;;;;4962453;28;20452;-90
2021/08/07 07:19:56;;;;;;;0.10;0.10;;;19.70;99.90;;;;;;4961723;28;20090;-91
2021/08/07 07:22:21;;;;;;;0.20;0.20;;;19.90;99.90;;;;;;4965216;28;20081;-91
2021/08/07 07:24:47;;;;;;;0.00;0.00;;;20.00;99.90;;;;;;4959555;28;20046;-90
2021/08/07 07:27:13;;;;;;;0.10;0.10;;;20.40;99.90;;;;;;4956672;28;20042;-89
2021/08/07 07:29:40;;;;;;;0.00;0.00;;;20.80;99.90;;;;;;4956282;28;20031;-89
2021/08/07 07:32:08;;;;;;;0.00;0.00;;;21.20;99.90;;;;;;4960489;28;20030;-90
2021/08/07 07:34:34;;;;;;;0.00;0.00;;;21.80;99.90;;;;;;4960356;28;20022;-91
2021/08/07 07:37:00;;;;;;;0.05;0.05;;;22.30;99.90;;;;;;4959891;28;20039;-90
2021/08/07 07:39:26;;;;;;;0.00;0.00;;;21.80;99.90;;;;;;4958458;28;20031;-91
2021/08/07 07:41:51;;;;;;;0.10;0.10;;;21.20;99.90;;;;;;4960256;28;20041;-90
2021/08/07 07:44:17;;;;;;;0.00;0.00;;;20.90;99.90;;;;;;4963414;28;20464;-91
2021/08/07 07:46:43;;;;;;;0.00;0.00;;;21.00;99.90;;;;;;4961537;28;20043;-91
2021/08/07 07:49:08;;;;;;;0.10;0.10;;;20.90;99.90;;;;;;4957837;28;20505;-89
2021/08/07 07:51:34;;;;;;;0.00;0.00;;;20.90;99.90;;;;;;4959534;28;20078;-90
2021/08/07 07:54:00;;;;;;;0.30;0.30;;;20.90;99.90;;;;;;4960456;28;20030;-92
2021/08/07 07:56:25;;;;;;;0.00;0.00;;;20.80;99.90;;;;;;4962467;28;20037;-90
2021/08/07 07:58:51;;;;;;;0.00;0.00;;;20.70;99.90;;;;;;4961225;28;20102;-85
2021/08/07 08:01:17;;;;;;;0.00;0.00;;;20.70;99.90;;;;;;4960111;28;20065;-84
2021/08/07 08:03:43;;;;;;;3.30;0.93;;;20.80;99.90;;;;;;4953777;28;20418;-86
2021/08/07 08:06:09;;;;;;;0.00;0.00;;;20.70;99.90;;;;;;4953068;28;20118;-85
2021/08/07 08:08:35;;;;;;;0.87;0.53;;;20.60;99.90;;;;;;4954344;28;20093;-85
2021/08/07 08:11:00;;;;;;;0.17;0.10;;;20.50;99.90;;;;;;4956390;28;20046;-84
2021/08/07 08:13:26;;;;;;;1.37;0.13;;;20.50;99.90;;;;;;4956761;28;20875;-84
2021/08/07 08:15:52;;;;;;;0.20;0.20;;;20.60;99.90;;;;;;4954442;28;20039;-84
2021/08/07 08:18:17;;;;;;;0.10;0.10;;;21.00;99.90;;;;;;4952466;28;20498;-84
2021/08/07 08:20:43;;;;;;;0.00;0.00;;;20.90;99.90;;;;;;4948955;28;20706;-84
2021/08/07 08:23:09;;;;;;;0.00;0.00;;;21.30;99.90;;;;;;4954232;28;20715;-83
2021/08/07 08:25:35;;;;;;;0.75;0.47;;;21.70;99.90;;;;;;4958947;28;20033;-83
2021/08/07 08:28:01;;;;;;;0.10;0.10;;;21.60;99.90;;;;;;4958560;28;20042;-83
2021/08/07 08:30:27;;;;;;;0.03;0.03;;;21.50;99.90;;;;;;4957930;28;20216;-84
2021/08/07 08:32:56;;;;;;;0.10;0.10;;;21.10;99.90;;;;;;4957044;28;20035;-85
2021/08/07 08:35:22;;;;;;;0.30;0.30;;;21.30;99.90;;;;;;4959046;28;20041;-84
2021/08/07 08:37:47;;;;;;;0.33;0.30;;;21.10;99.90;;;;;;4959789;28;20027;-83
2021/08/07 08:40:14;;;;;;;0.63;0.33;;;21.20;99.90;;;;;;4964411;28;20827;-84
2021/08/07 08:42:41;;;;;;;0.10;0.10;;;21.00;99.90;;;;;;4957557;28;20035;-84
2021/08/07 08:45:07;;;;;;;0.30;0.30;;;21.00;99.90;;;;;;4961119;28;20078;-84
2021/08/07 08:47:36;;;;;;;0.08;0.08;;;21.00;99.90;;;;;;4958704;28;20027;-84
2021/08/07 08:50:02;;;;;;;0.00;0.00;;;21.20;99.90;;;;;;4965677;28;20038;-83
2021/08/07 08:52:29;;;;;;;0.15;0.15;;;21.40;99.90;;;;;;4963336;28;20034;-83
2021/08/07 08:54:56;;;;;;;0.00;0.00;;;22.20;99.90;;;;;;4964341;28;20042;-83
2021/08/07 08:57:22;;;;;;;0.00;0.00;;;21.90;99.90;;;;;;4967144;28;20035;-83
2021/08/07 08:59:48;;;;;;;0.10;0.10;;;21.80;99.90;;;;;;4966833;28;20098;-83
2021/08/07 09:02:14;;;;;;;1.27;0.30;;;21.80;99.90;;;;;;4966627;28;20039;-84
2021/08/07 09:04:40;;;;;;;0.23;0.23;;;21.60;99.90;;;;;;4960543;28;20038;-83
2021/08/07 09:07:06;;;;;;;0.00;0.00;;;21.50;99.90;;;;;;4966381;28;20031;-83
2021/08/07 09:09:43;;;;;;;0.80;0.63;;;21.10;99.90;;;;;;4967121;28;20053;-83
2021/08/07 09:12:10;;;;;;;0.10;0.10;;;21.40;99.90;;;;;;4959858;28;20408;-82
2021/08/07 09:14:39;;;;;;;0.35;0.15;;;21.60;99.90;;;;;;4961427;28;20412;-82
2021/08/07 09:17:09;;;;;;;0.10;0.10;;;21.80;99.90;;;;;;4964793;28;20038;-84
2021/08/07 09:19:41;;;;;;;0.25;0.17;;;21.40;99.90;;;;;;4964367;28;20394;-83
2021/08/07 09:22:07;;;;;;;0.28;0.28;;;21.60;99.90;;;;;;4952052;28;20031;-84
2021/08/07 09:24:34;;;;;;;0.00;0.00;;;21.50;99.90;;;;;;4960094;28;20043;-83
2021/08/07 09:27:02;;;;;;;0.10;0.10;;;21.60;99.90;;;;;;4957673;28;20035;-83
2021/08/07 09:29:36;;;;;;;0.30;0.13;;;23.30;99.90;;;;;;4958668;28;20559;-83
2021/08/07 09:32:02;;;;;;;0.00;0.00;;;24.40;99.90;;;;;;4957147;28;20354;-83
2021/08/07 09:34:27;;;;;;;0.00;0.00;;;26.50;99.90;;;;;;4960838;28;20031;-85
2021/08/07 09:36:55;;;;;;;0.00;0.00;;;25.60;99.90;;;;;;4964882;28;20059;-83
2021/08/07 09:39:41;;;;;;;0.00;0.00;;;23.60;99.90;;;;;;4967769;28;20134;-83
2021/08/07 09:42:07;;;;;;;0.05;0.05;;;22.50;99.90;;;;;;4965472;28;20039;-83
2021/08/07 09:44:34;;;;;;;0.03;0.03;;;21.20;99.90;;;;;;4963499;28;20105;-84
2021/08/07 09:47:26;;;;;;;0.05;0.05;;;21.40;99.90;;;;;;4965460;28;20110;-84
2021/08/07 09:49:51;;;;;;;0.03;0.03;;;20.60;99.90;;;;;;4959103;28;20046;-83
2021/08/07 09:52:17;;;;;;;0.00;0.00;;;20.10;99.90;;;;;;4963563;28;20785;-85
2021/08/07 09:54:45;;;;;;;0.10;0.10;;;21.20;99.90;;;;;;4961017;28;20039;-85
2021/08/07 09:57:27;;;;;;;0.00;0.00;;;22.30;99.90;;;;;;4954312;28;20555;-85
2021/08/07 09:59:53;;;;;;;0.40;0.40;;;22.20;99.90;;;;;;4957720;28;20028;-84
2021/08/07 10:02:36;;;;;;;2.47;0.52;;;21.60;99.90;;;;;;4958602;28;20041;-83
2021/08/07 10:05:04;;;;;;;0.00;0.00;;;21.80;99.90;;;;;;4961173;28;20058;-85
2021/08/07 10:07:29;;;;;;;0.20;0.05;;;21.40;99.90;;;;;;4963989;28;20023;-86
2021/08/07 10:09:56;;;;;;;0.00;0.00;;;25.80;99.90;;;;;;4962625;28;20042;-85
2021/08/07 10:12:22;;;;;;;0.03;0.00;;;23.20;99.90;;;;;;4965435;28;20034;-85
2021/08/07 10:14:49;;;;;;;0.75;0.30;;;21.30;99.90;;;;;;4959495;28;20039;-86
2021/08/07 10:17:18;;;;;;;0.50;0.20;;;25.70;99.90;;;;;;4954583;28;20117;-84
2021/08/07 10:19:45;;;;;;;0.00;0.00;;;22.80;99.90;;;;;;4959560;28;20031;-84
2021/08/07 10:22:13;;;;;;;0.00;0.00;;;23.80;99.90;;;;;;4948985;28;20042;-84
2021/08/07 10:24:42;;;;;;;0.00;0.00;;;22.70;99.90;;;;;;4962773;28;20086;-83
2021/08/07 10:27:09;;;;;;;0.03;0.03;;;26.50;99.90;;;;;;4964899;28;20045;-84
2021/08/07 10:29:47;;;;;;;0.00;0.00;;;24.50;99.90;;;;;;4962624;28;20030;-84
2021/08/07 10:32:17;;;;;;;0.63;0.10;;;22.10;99.90;;;;;;4961553;28;20062;-83
2021/08/07 10:35:02;;;;;;;0.15;0.15;;;21.40;99.90;;;;;;4955531;28;20127;-84
2021/08/07 10:37:28;;;;;;;0.00;0.00;;;20.80;99.90;;;;;;4960751;28;20046;-83
2021/08/07 10:39:54;;;;;;;0.03;0.03;;;20.80;99.90;;;;;;4962452;28;20038;-84
2021/08/07 10:42:20;;;;;;;0.00;0.00;;;21.20;99.90;;;;;;4955024;28;20579;-84
2021/08/07 10:44:47;;;;;;;;;;;21.20;99.90;;;;;;4957667;28;20090;-84
2021/08/07 10:47:13;;;;;;;0.00;0.00;;;22.40;99.90;;;;;;4958371;28;19937;-84
2021/08/07 10:49:41;;;;;;;;;;;22.80;99.90;;;;;;4947831;28;20142;-85
2021/08/07 10:52:21;;;;;;;0.03;0.03;;;28.20;99.90;;;;;;4957859;28;19953;-86
2021/08/07 10:54:52;;;;;;;0.10;0.10;;;30.50;99.90;;;;;;4957598;28;20026;-85
2021/08/07 10:57:39;;;;;;;1.08;0.35;;;29.80;99.90;;;;;;4959834;28;20033;-85
2021/08/07 11:00:16;;;;;;;0.00;0.00;;;25.10;99.90;;;;;;4957362;28;20050;-84
2021/08/07 11:02:44;;;;;;;0.05;0.05;;;23.10;99.90;;;;;;4957052;28;20046;-86
2021/08/07 11:05:10;;;;;;;0.10;0.10;;;22.30;99.90;;;;;;4957486;28;20134;-85
2021/08/07 11:07:36;;;;;;;0.10;0.10;;;23.70;99.90;;;;;;4956585;28;20485;-85
2021/08/07 11:10:14;;;;;;;0.00;0.00;;;22.90;99.90;;;;;;4947758;28;20468;-84
2021/08/07 11:12:44;;;;;;;0.00;0.00;;;23.80;99.90;;;;;;4956408;28;20032;-84
2021/08/07 11:15:13;;;;;;;0.00;0.00;;;22.90;99.90;;;;;;4964916;28;20763;-83
2021/08/07 11:17:44;;;;;;;0.00;0.00;;;22.00;99.90;;;;;;4963755;28;20027;-84
2021/08/07 11:20:35;;;;;;;0.00;0.00;;;22.60;99.90;;;;;;4961149;28;20754;-84
2021/08/07 11:23:01;;;;;;;0.10;0.10;;;22.80;99.90;;;;;;4958370;28;20105;-82
2021/08/07 11:25:26;;;;;;;0.73;0.43;;;22.80;99.90;;;;;;4958054;28;20125;-83
2021/08/07 11:27:53;;;;;;;0.07;0.07;;;22.90;99.90;;;;;;4933966;28;20516;-84
2021/08/07 11:30:21;;;;;;;0.10;0.10;;;23.20;99.90;;;;;;4955063;28;20035;-83
2021/08/07 11:32:56;;;;;;;0.00;0.00;;;23.20;99.90;;;;;;4948478;28;20031;-84
2021/08/07 11:35:31;;;;;;;0.20;0.20;;;22.70;99.90;;;;;;4955921;28;20126;-85
2021/08/07 11:38:06;;;;;;;0.10;0.10;;;22.80;99.90;;;;;;4951530;28;20034;-84
2021/08/07 11:40:50;;;;;;;0.00;0.00;;;23.20;99.90;;;;;;4952252;28;20079;-84
2021/08/07 11:43:27;;;;;;;0.00;0.00;;;22.10;99.90;;;;;;4948151;28;20046;-83
2021/08/07 11:45:59;;;;;;;3.00;0.20;;;22.40;99.90;;;;;;4950366;28;20142;-83
2021/08/07 11:48:33;;;;;;;0.20;0.20;;;22.30;99.90;;;;;;4946865;28;20031;-83
2021/08/07 11:51:02;;;;;;;0.00;0.00;;;21.80;99.90;;;;;;4948795;28;20059;-82
2021/08/07 11:53:28;;;;;;;0.00;0.00;;;22.10;99.90;;;;;;4969412;28;20026;-81
2021/08/07 11:56:04;;;;;;;0.00;0.00;;;22.00;99.90;;;;;;4952497;28;20042;-82
2021/08/07 11:58:31;;;;;;;;;;;22.70;99.90;;;;;;4954283;28;20293;-83
2021/08/07 12:01:01;;;;;;;0.15;0.15;;;22.60;99.90;;;;;;4955711;28;19914;-83
2021/08/07 12:03:37;;;;;;;0.00;0.00;;;22.90;99.90;;;;;;4953783;28;20038;-82
2021/08/07 12:06:03;;;;;;;0.43;0.40;;;23.40;99.90;;;;;;4946970;28;20078;-83
2021/08/07 12:08:32;;;;;;;0.10;0.10;;;23.20;99.90;;;;;;4949940;28;20063;-82
2021/08/07 12:11:10;;;;;;;1.65;0.15;;;23.10;99.90;;;;;;4948204;28;20039;-82
2021/08/07 12:13:41;;;;;;;0.10;0.10;;;23.30;99.90;;;;;;4954634;28;20035;-83
2021/08/07 12:16:08;;;;;;;0.17;0.17;;;22.60;99.90;;;;;;4950451;28;20031;-82
2021/08/07 12:18:58;;;;;;;0.00;0.00;;;21.30;99.90;;;;;;4950176;28;20046;-81
2021/08/07 12:21:36;;;;;;;0.00;0.00;;;20.40;99.90;;;;;;4940899;28;20712;-81
2021/08/07 12:24:05;;;;;;;0.10;0.10;;;19.10;99.90;;;;;;4954676;28;20039;-81
2021/08/07 12:26:37;;;;;;;1.60;0.40;;;18.30;99.90;;;;;;4951736;28;20031;-82
2021/08/07 12:29:06;;;;;;;0.45;0.38;;;17.90;99.90;;;;;;4955667;28;20497;-84
2021/08/07 12:31:41;;;;;;;0.00;0.00;;;17.60;99.90;;;;;;4949163;28;20023;-84
2021/08/07 12:34:14;;;;;;;0.00;0.00;;;17.20;1.00;;;;;;4951437;28;20035;-84
2021/08/07 12:36:39;;;;;;;0.10;0.10;;;16.90;99.90;;;;;;4964611;28;20103;-85
2021/08/07 12:39:05;;;;;;;0.10;0.10;;;16.40;1.00;;;;;;4965701;28;20071;-84
2021/08/07 12:41:31;;;;;;;0.00;0.00;;;16.80;22.90;;;;;;4967301;28;20676;-85
2021/08/07 12:43:57;;;;;;;0.00;0.00;;;17.00;99.90;;;;;;4966327;28;20034;-84
2021/08/07 12:46:23;;;;;;;0.13;0.13;;;16.70;99.90;;;;;;4967719;28;20293;-84
2021/08/07 12:48:59;;;;;;;0.00;0.00;;;16.40;58.00;;;;;;4964253;28;20031;-83
2021/08/07 12:51:31;;;;;;;0.50;0.40;;;16.70;99.90;;;;;;4953636;28;20094;-84